sensor_id;sensor_type;location;lat;lon;timestamp;temperature;humidity
75961;SHT30;64644;48.914;2.254;2023-06-01T00:00:13;22.22;50.28
75961;SHT30;64644;48.914;2.254;2023-06-01T00:02:39;22.17;50.35
75961;SHT30;64644;48.914;2.254;2023-06-01T00:05:05;22.14;50.39
75961;SHT30;64644;48.914;2.254;2023-06-01T00:07:31;22.13;50.41
75961;SHT30;64644;48.914;2.254;2023-06-01T00:09:58;22.10;50.54
75961;SHT30;64644;48.914;2.254;2023-06-01T00:12:23;22.08;50.69
75961;SHT30;64644;48.914;2.254;2023-06-01T00:14:49;22.08;50.78
75961;SHT30;64644;48.914;2.254;2023-06-01T00:17:14;22.06;50.86
75961;SHT30;64644;48.914;2.254;2023-06-01T00:19:39;22.06;50.96
75961;SHT30;64644;48.914;2.254;2023-06-01T00:22:05;22.01;50.85
75961;SHT30;64644;48.914;2.254;2023-06-01T00:24:32;22.01;50.94
75961;SHT30;64644;48.914;2.254;2023-06-01T00:26:57;22.00;50.98
75961;SHT30;64644;48.914;2.254;2023-06-01T00:29:22;22.00;51.03
75961;SHT30;64644;48.914;2.254;2023-06-01T00:31:48;21.98;51.15
75961;SHT30;64644;48.914;2.254;2023-06-01T00:34:13;21.96;51.24
75961;SHT30;64644;48.914;2.254;2023-06-01T00:36:39;21.94;51.43
75961;SHT30;64644;48.914;2.254;2023-06-01T00:39:04;21.90;51.45
75961;SHT30;64644;48.914;2.254;2023-06-01T00:41:30;21.93;51.55
75961;SHT30;64644;48.914;2.254;2023-06-01T00:43:56;21.87;51.86
75961;SHT30;64644;48.914;2.254;2023-06-01T00:46:21;21.86;51.78
75961;SHT30;64644;48.914;2.254;2023-06-01T00:48:47;21.83;51.83
75961;SHT30;64644;48.914;2.254;2023-06-01T00:51:12;21.83;51.89
75961;SHT30;64644;48.914;2.254;2023-06-01T00:53:41;21.79;52.20
75961;SHT30;64644;48.914;2.254;2023-06-01T00:56:06;21.79;52.08
75961;SHT30;64644;48.914;2.254;2023-06-01T00:58:32;21.73;52.39
75961;SHT30;64644;48.914;2.254;2023-06-01T01:00:58;21.72;52.42
75961;SHT30;64644;48.914;2.254;2023-06-01T01:03:23;21.65;52.32
75961;SHT30;64644;48.914;2.254;2023-06-01T01:05:57;21.65;52.38
75961;SHT30;64644;48.914;2.254;2023-06-01T01:08:37;21.62;52.52
75961;SHT30;64644;48.914;2.254;2023-06-01T01:11:23;21.59;52.57
75961;SHT30;64644;48.914;2.254;2023-06-01T01:14:16;21.56;52.69
75961;SHT30;64644;48.914;2.254;2023-06-01T01:17:01;21.55;52.85
75961;SHT30;64644;48.914;2.254;2023-06-01T01:27:43;21.44;53.23
75961;SHT30;64644;48.914;2.254;2023-06-01T01:30:10;21.42;53.22
75961;SHT30;64644;48.914;2.254;2023-06-01T01:32:37;21.39;53.31
75961;SHT30;64644;48.914;2.254;2023-06-01T01:35:04;21.35;53.59
75961;SHT30;64644;48.914;2.254;2023-06-01T01:37:32;21.34;53.51
75961;SHT30;64644;48.914;2.254;2023-06-01T01:39:58;21.31;53.60
75961;SHT30;64644;48.914;2.254;2023-06-01T01:42:24;21.31;53.91
75961;SHT30;64644;48.914;2.254;2023-06-01T01:44:49;21.30;53.77
75961;SHT30;64644;48.914;2.254;2023-06-01T01:47:31;21.24;53.83
75961;SHT30;64644;48.914;2.254;2023-06-01T01:50:05;21.24;54.00
75961;SHT30;64644;48.914;2.254;2023-06-01T01:52:39;21.21;54.11
75961;SHT30;64644;48.914;2.254;2023-06-01T01:55:10;21.20;54.24
75961;SHT30;64644;48.914;2.254;2023-06-01T01:57:36;21.17;54.27
75961;SHT30;64644;48.914;2.254;2023-06-01T02:00:04;21.12;54.49
75961;SHT30;64644;48.914;2.254;2023-06-01T02:02:31;21.12;54.57
75961;SHT30;64644;48.914;2.254;2023-06-01T02:04:56;21.10;54.66
75961;SHT30;64644;48.914;2.254;2023-06-01T02:07:22;21.06;54.68
75961;SHT30;64644;48.914;2.254;2023-06-01T02:09:47;21.03;54.76
75961;SHT30;64644;48.914;2.254;2023-06-01T02:12:12;21.01;54.95
75961;SHT30;64644;48.914;2.254;2023-06-01T02:14:38;20.99;54.84
75961;SHT30;64644;48.914;2.254;2023-06-01T02:17:03;20.97;54.96
75961;SHT30;64644;48.914;2.254;2023-06-01T02:19:30;20.93;55.10
75961;SHT30;64644;48.914;2.254;2023-06-01T02:21:56;20.90;55.24
75961;SHT30;64644;48.914;2.254;2023-06-01T02:24:21;20.87;55.15
75961;SHT30;64644;48.914;2.254;2023-06-01T02:26:47;20.84;55.34
75961;SHT30;64644;48.914;2.254;2023-06-01T02:29:19;20.83;55.45
75961;SHT30;64644;48.914;2.254;2023-06-01T02:31:47;20.83;55.46
75961;SHT30;64644;48.914;2.254;2023-06-01T02:34:13;20.79;55.58
75961;SHT30;64644;48.914;2.254;2023-06-01T02:36:38;20.73;55.63
75961;SHT30;64644;48.914;2.254;2023-06-01T02:39:03;20.73;55.71
75961;SHT30;64644;48.914;2.254;2023-06-01T02:41:29;20.71;55.91
75961;SHT30;64644;48.914;2.254;2023-06-01T02:43:54;20.68;55.84
75961;SHT30;64644;48.914;2.254;2023-06-01T02:46:20;20.62;56.19
75961;SHT30;64644;48.914;2.254;2023-06-01T02:48:46;20.56;56.03
75961;SHT30;64644;48.914;2.254;2023-06-01T02:51:12;20.58;56.24
75961;SHT30;64644;48.914;2.254;2023-06-01T02:53:40;20.53;56.35
75961;SHT30;64644;48.914;2.254;2023-06-01T02:56:06;20.52;56.19
75961;SHT30;64644;48.914;2.254;2023-06-01T02:58:31;20.51;56.61
75961;SHT30;64644;48.914;2.254;2023-06-01T03:00:56;20.45;56.47
75961;SHT30;64644;48.914;2.254;2023-06-01T03:03:25;20.45;56.63
75961;SHT30;64644;48.914;2.254;2023-06-01T03:05:51;20.42;56.66
75961;SHT30;64644;48.914;2.254;2023-06-01T03:08:16;20.41;56.77
75961;SHT30;64644;48.914;2.254;2023-06-01T03:10:42;20.37;56.76
75961;SHT30;64644;48.914;2.254;2023-06-01T03:13:08;20.35;56.99
75961;SHT30;64644;48.914;2.254;2023-06-01T03:15:33;20.32;57.07
75961;SHT30;64644;48.914;2.254;2023-06-01T03:17:58;20.31;57.07
75961;SHT30;64644;48.914;2.254;2023-06-01T03:20:24;20.27;57.08
75961;SHT30;64644;48.914;2.254;2023-06-01T03:22:50;20.28;57.13
75961;SHT30;64644;48.914;2.254;2023-06-01T03:25:15;20.25;57.34
75961;SHT30;64644;48.914;2.254;2023-06-01T03:27:42;20.24;57.25
75961;SHT30;64644;48.914;2.254;2023-06-01T03:30:08;20.22;57.13
75961;SHT30;64644;48.914;2.254;2023-06-01T03:32:44;20.20;57.36
75961;SHT30;64644;48.914;2.254;2023-06-01T03:35:11;20.17;57.43
75961;SHT30;64644;48.914;2.254;2023-06-01T03:37:39;20.17;57.52
75961;SHT30;64644;48.914;2.254;2023-06-01T03:40:06;20.13;57.56
75961;SHT30;64644;48.914;2.254;2023-06-01T03:42:39;20.10;57.64
75961;SHT30;64644;48.914;2.254;2023-06-01T03:45:05;20.09;57.81
75961;SHT30;64644;48.914;2.254;2023-06-01T03:47:31;20.06;57.80
75961;SHT30;64644;48.914;2.254;2023-06-01T03:49:56;20.04;57.94
75961;SHT30;64644;48.914;2.254;2023-06-01T03:52:23;20.01;57.86
75961;SHT30;64644;48.914;2.254;2023-06-01T03:54:50;19.98;57.95
75961;SHT30;64644;48.914;2.254;2023-06-01T03:57:15;19.98;58.13
75961;SHT30;64644;48.914;2.254;2023-06-01T03:59:40;19.98;58.04
75961;SHT30;64644;48.914;2.254;2023-06-01T04:02:06;19.96;58.16
75961;SHT30;64644;48.914;2.254;2023-06-01T04:04:34;19.93;58.10
75961;SHT30;64644;48.914;2.254;2023-06-01T04:06:59;19.93;58.17
75961;SHT30;64644;48.914;2.254;2023-06-01T04:09:28;19.89;58.27
75961;SHT30;64644;48.914;2.254;2023-06-01T04:11:53;19.90;58.25
75961;SHT30;64644;48.914;2.254;2023-06-01T04:14:19;19.90;58.28
75961;SHT30;64644;48.914;2.254;2023-06-01T04:16:45;19.89;58.28
75961;SHT30;64644;48.914;2.254;2023-06-01T04:19:10;19.89;58.36
75961;SHT30;64644;48.914;2.254;2023-06-01T04:21:35;19.89;58.57
75961;SHT30;64644;48.914;2.254;2023-06-01T04:24:02;19.87;58.36
75961;SHT30;64644;48.914;2.254;2023-06-01T04:26:27;19.89;58.55
75961;SHT30;64644;48.914;2.254;2023-06-01T04:28:53;19.86;58.45
75961;SHT30;64644;48.914;2.254;2023-06-01T04:31:22;19.83;58.68
75961;SHT30;64644;48.914;2.254;2023-06-01T04:33:49;19.83;58.60
75961;SHT30;64644;48.914;2.254;2023-06-01T04:36:21;19.83;58.61
75961;SHT30;64644;48.914;2.254;2023-06-01T04:38:48;19.86;58.57
75961;SHT30;64644;48.914;2.254;2023-06-01T04:41:18;19.83;58.60
75961;SHT30;64644;48.914;2.254;2023-06-01T04:43:46;19.83;58.82
75961;SHT30;64644;48.914;2.254;2023-06-01T04:46:20;19.85;58.76
75961;SHT30;64644;48.914;2.254;2023-06-01T04:48:49;19.80;58.77
75961;SHT30;64644;48.914;2.254;2023-06-01T04:51:14;19.83;58.79
75961;SHT30;64644;48.914;2.254;2023-06-01T04:53:48;19.82;58.71
75961;SHT30;64644;48.914;2.254;2023-06-01T04:56:24;19.79;58.81
75961;SHT30;64644;48.914;2.254;2023-06-01T04:58:52;19.79;58.88
75961;SHT30;64644;48.914;2.254;2023-06-01T05:01:18;19.77;58.87
75961;SHT30;64644;48.914;2.254;2023-06-01T05:03:46;19.79;59.04
75961;SHT30;64644;48.914;2.254;2023-06-01T05:06:12;19.79;58.85
75961;SHT30;64644;48.914;2.254;2023-06-01T05:08:41;19.80;59.04
75961;SHT30;64644;48.914;2.254;2023-06-01T05:11:08;19.82;58.93
75961;SHT30;64644;48.914;2.254;2023-06-01T05:13:34;19.80;58.95
75961;SHT30;64644;48.914;2.254;2023-06-01T05:16:00;19.80;58.99
75961;SHT30;64644;48.914;2.254;2023-06-01T05:18:26;19.80;58.97
75961;SHT30;64644;48.914;2.254;2023-06-01T05:20:51;19.79;59.11
75961;SHT30;64644;48.914;2.254;2023-06-01T05:23:16;19.83;59.00
75961;SHT30;64644;48.914;2.254;2023-06-01T05:25:42;19.83;59.14
75961;SHT30;64644;48.914;2.254;2023-06-01T05:28:07;19.87;59.09
75961;SHT30;64644;48.914;2.254;2023-06-01T05:30:32;19.86;59.10
75961;SHT30;64644;48.914;2.254;2023-06-01T05:32:59;19.87;59.31
75961;SHT30;64644;48.914;2.254;2023-06-01T05:35:24;19.89;59.15
75961;SHT30;64644;48.914;2.254;2023-06-01T05:37:49;19.93;59.17
75961;SHT30;64644;48.914;2.254;2023-06-01T05:40:15;19.92;58.85
75961;SHT30;64644;48.914;2.254;2023-06-01T05:42:40;19.98;58.94
75961;SHT30;64644;48.914;2.254;2023-06-01T05:45:06;19.97;59.22
75961;SHT30;64644;48.914;2.254;2023-06-01T05:47:32;20.00;58.93
75961;SHT30;64644;48.914;2.254;2023-06-01T05:49:57;20.01;58.87
75961;SHT30;64644;48.914;2.254;2023-06-01T05:52:22;20.00;58.89
75961;SHT30;64644;48.914;2.254;2023-06-01T05:54:48;20.04;59.04
75961;SHT30;64644;48.914;2.254;2023-06-01T05:57:14;20.06;58.85
75961;SHT30;64644;48.914;2.254;2023-06-01T05:59:39;20.07;58.95
75961;SHT30;64644;48.914;2.254;2023-06-01T06:02:05;20.11;58.71
75961;SHT30;64644;48.914;2.254;2023-06-01T06:04:31;20.13;58.57
75961;SHT30;64644;48.914;2.254;2023-06-01T06:06:56;20.13;58.82
75961;SHT30;64644;48.914;2.254;2023-06-01T06:09:21;20.14;58.69
75961;SHT30;64644;48.914;2.254;2023-06-01T06:11:46;20.14;58.83
75961;SHT30;64644;48.914;2.254;2023-06-01T06:14:12;20.17;58.82
75961;SHT30;64644;48.914;2.254;2023-06-01T06:16:38;20.21;58.83
75961;SHT30;64644;48.914;2.254;2023-06-01T06:19:05;20.24;58.78
75961;SHT30;64644;48.914;2.254;2023-06-01T06:21:30;20.28;58.63
75961;SHT30;64644;48.914;2.254;2023-06-01T06:23:56;20.28;58.57
75961;SHT30;64644;48.914;2.254;2023-06-01T06:26:25;20.30;58.40
75961;SHT30;64644;48.914;2.254;2023-06-01T06:28:51;20.32;58.59
75961;SHT30;64644;48.914;2.254;2023-06-01T06:31:16;20.37;58.60
75961;SHT30;64644;48.914;2.254;2023-06-01T06:33:42;20.38;58.81
75961;SHT30;64644;48.914;2.254;2023-06-01T06:36:07;20.39;58.26
75961;SHT30;64644;48.914;2.254;2023-06-01T06:38:32;20.41;58.30
75961;SHT30;64644;48.914;2.254;2023-06-01T06:40:58;20.39;58.55
75961;SHT30;64644;48.914;2.254;2023-06-01T06:43:23;20.44;58.16
75961;SHT30;64644;48.914;2.254;2023-06-01T06:45:49;20.41;58.10
75961;SHT30;64644;48.914;2.254;2023-06-01T06:48:15;20.41;58.38
75961;SHT30;64644;48.914;2.254;2023-06-01T06:50:40;20.45;58.35
75961;SHT30;64644;48.914;2.254;2023-06-01T06:53:09;20.48;58.38
75961;SHT30;64644;48.914;2.254;2023-06-01T06:55:34;20.53;58.32
75961;SHT30;64644;48.914;2.254;2023-06-01T06:58:00;20.58;58.13
75961;SHT30;64644;48.914;2.254;2023-06-01T07:00:26;20.62;57.94
75961;SHT30;64644;48.914;2.254;2023-06-01T07:02:52;20.62;57.91
75961;SHT30;64644;48.914;2.254;2023-06-01T07:05:17;20.65;58.20
75961;SHT30;64644;48.914;2.254;2023-06-01T07:07:43;20.72;57.97
75961;SHT30;64644;48.914;2.254;2023-06-01T07:10:08;20.72;57.54
75961;SHT30;64644;48.914;2.254;2023-06-01T07:12:33;20.72;57.84
75961;SHT30;64644;48.914;2.254;2023-06-01T07:14:59;20.76;58.06
75961;SHT30;64644;48.914;2.254;2023-06-01T07:17:24;20.83;58.09
75961;SHT30;64644;48.914;2.254;2023-06-01T07:19:50;20.87;57.73
75961;SHT30;64644;48.914;2.254;2023-06-01T07:22:15;20.93;57.78
75961;SHT30;64644;48.914;2.254;2023-06-01T07:24:42;20.97;57.54
75961;SHT30;64644;48.914;2.254;2023-06-01T07:27:07;21.03;57.31
75961;SHT30;64644;48.914;2.254;2023-06-01T07:29:33;21.00;57.59
75961;SHT30;64644;48.914;2.254;2023-06-01T07:31:58;21.08;57.21
75961;SHT30;64644;48.914;2.254;2023-06-01T07:34:23;21.23;57.22
75961;SHT30;64644;48.914;2.254;2023-06-01T07:36:50;21.34;56.77
75961;SHT30;64644;48.914;2.254;2023-06-01T07:39:15;21.37;56.70
75961;SHT30;64644;48.914;2.254;2023-06-01T07:41:41;21.34;56.57
75961;SHT30;64644;48.914;2.254;2023-06-01T07:44:07;21.32;56.88
75961;SHT30;64644;48.914;2.254;2023-06-01T07:46:33;21.38;56.73
75961;SHT30;64644;48.914;2.254;2023-06-01T07:48:58;21.44;56.66
75961;SHT30;64644;48.914;2.254;2023-06-01T07:51:24;21.48;56.32
75961;SHT30;64644;48.914;2.254;2023-06-01T07:53:49;21.52;56.53
75961;SHT30;64644;48.914;2.254;2023-06-01T07:56:15;21.55;56.32
75961;SHT30;64644;48.914;2.254;2023-06-01T07:58:40;21.61;56.41
75961;SHT30;64644;48.914;2.254;2023-06-01T08:01:05;21.65;56.48
75961;SHT30;64644;48.914;2.254;2023-06-01T08:03:31;21.70;56.30
75961;SHT30;64644;48.914;2.254;2023-06-01T08:05:59;21.76;56.37
75961;SHT30;64644;48.914;2.254;2023-06-01T08:08:25;21.85;56.58
75961;SHT30;64644;48.914;2.254;2023-06-01T08:10:50;21.93;56.44
75961;SHT30;64644;48.914;2.254;2023-06-01T08:13:17;21.96;55.81
75961;SHT30;64644;48.914;2.254;2023-06-01T08:15:44;22.00;55.59
75961;SHT30;64644;48.914;2.254;2023-06-01T08:18:13;22.04;55.82
75961;SHT30;64644;48.914;2.254;2023-06-01T08:20:39;22.11;55.85
75961;SHT30;64644;48.914;2.254;2023-06-01T08:23:04;22.17;55.34
75961;SHT30;64644;48.914;2.254;2023-06-01T08:25:30;22.21;55.41
75961;SHT30;64644;48.914;2.254;2023-06-01T08:27:55;22.30;55.63
75961;SHT30;64644;48.914;2.254;2023-06-01T08:30:21;22.37;55.71
75961;SHT30;64644;48.914;2.254;2023-06-01T08:32:46;22.42;55.69
75961;SHT30;64644;48.914;2.254;2023-06-01T08:35:13;22.51;55.93
75961;SHT30;64644;48.914;2.254;2023-06-01T08:37:40;22.55;54.87
75961;SHT30;64644;48.914;2.254;2023-06-01T08:40:06;22.62;55.48
75961;SHT30;64644;48.914;2.254;2023-06-01T08:43:09;22.70;55.44
75961;SHT30;64644;48.914;2.254;2023-06-01T08:45:37;22.77;54.79
75961;SHT30;64644;48.914;2.254;2023-06-01T08:48:04;22.83;54.43
75961;SHT30;64644;48.914;2.254;2023-06-01T08:50:34;22.87;54.15
75961;SHT30;64644;48.914;2.254;2023-06-01T08:53:01;22.93;54.44
75961;SHT30;64644;48.914;2.254;2023-06-01T08:55:26;23.03;54.77
75961;SHT30;64644;48.914;2.254;2023-06-01T08:57:53;23.13;55.07
75961;SHT30;64644;48.914;2.254;2023-06-01T09:00:19;23.20;54.35
75961;SHT30;64644;48.914;2.254;2023-06-01T09:02:45;23.28;54.57
75961;SHT30;64644;48.914;2.254;2023-06-01T09:05:11;23.30;54.41
75961;SHT30;64644;48.914;2.254;2023-06-01T09:07:38;23.39;53.75
75961;SHT30;64644;48.914;2.254;2023-06-01T09:10:05;23.47;54.36
75961;SHT30;64644;48.914;2.254;2023-06-01T09:12:31;23.52;54.01
75961;SHT30;64644;48.914;2.254;2023-06-01T09:15:14;23.63;53.74
75961;SHT30;64644;48.914;2.254;2023-06-01T09:17:45;23.69;53.23
75961;SHT30;64644;48.914;2.254;2023-06-01T09:20:25;23.75;53.82
75961;SHT30;64644;48.914;2.254;2023-06-01T09:22:52;23.86;53.66
75961;SHT30;64644;48.914;2.254;2023-06-01T09:25:32;23.93;53.19
75961;SHT30;64644;48.914;2.254;2023-06-01T09:27:59;23.99;53.66
75961;SHT30;64644;48.914;2.254;2023-06-01T09:30:37;24.09;53.20
75961;SHT30;64644;48.914;2.254;2023-06-01T09:33:14;24.17;53.30
75961;SHT30;64644;48.914;2.254;2023-06-01T09:35:45;24.25;52.78
75961;SHT30;64644;48.914;2.254;2023-06-01T09:38:11;24.28;52.26
75961;SHT30;64644;48.914;2.254;2023-06-01T09:40:38;24.32;52.22
75961;SHT30;64644;48.914;2.254;2023-06-01T09:43:24;24.34;52.17
75961;SHT30;64644;48.914;2.254;2023-06-01T09:46:19;24.45;52.27
75961;SHT30;64644;48.914;2.254;2023-06-01T09:48:44;24.49;52.56
75961;SHT30;64644;48.914;2.254;2023-06-01T09:51:23;24.58;52.35
75961;SHT30;64644;48.914;2.254;2023-06-01T09:53:54;24.69;52.33
75961;SHT30;64644;48.914;2.254;2023-06-01T09:56:19;24.76;51.73
75961;SHT30;64644;48.914;2.254;2023-06-01T09:58:45;24.83;51.76
75961;SHT30;64644;48.914;2.254;2023-06-01T10:01:12;24.89;51.64
75961;SHT30;64644;48.914;2.254;2023-06-01T10:03:42;24.97;51.66
75961;SHT30;64644;48.914;2.254;2023-06-01T10:06:11;25.08;51.35
75961;SHT30;64644;48.914;2.254;2023-06-01T10:08:37;25.18;51.15
75961;SHT30;64644;48.914;2.254;2023-06-01T10:11:03;25.24;51.28
75961;SHT30;64644;48.914;2.254;2023-06-01T10:13:29;25.34;51.26
75961;SHT30;64644;48.914;2.254;2023-06-01T10:15:59;25.42;50.86
75961;SHT30;64644;48.914;2.254;2023-06-01T10:18:24;25.57;50.73
75961;SHT30;64644;48.914;2.254;2023-06-01T10:20:50;25.69;50.74
75961;SHT30;64644;48.914;2.254;2023-06-01T10:23:17;25.80;50.19
75961;SHT30;64644;48.914;2.254;2023-06-01T10:25:47;25.90;49.79
75961;SHT30;64644;48.914;2.254;2023-06-01T10:28:15;25.96;49.62
75961;SHT30;64644;48.914;2.254;2023-06-01T10:30:42;26.03;49.51
75961;SHT30;64644;48.914;2.254;2023-06-01T10:33:07;26.11;49.23
75961;SHT30;64644;48.914;2.254;2023-06-01T10:40:36;26.37;49.11
75961;SHT30;64644;48.914;2.254;2023-06-01T10:43:02;26.45;48.98
75961;SHT30;64644;48.914;2.254;2023-06-01T10:48:02;26.68;48.67
75961;SHT30;64644;48.914;2.254;2023-06-01T10:50:29;26.78;48.38
75961;SHT30;64644;48.914;2.254;2023-06-01T10:52:55;26.83;48.15
75961;SHT30;64644;48.914;2.254;2023-06-01T10:55:23;26.96;48.12
75961;SHT30;64644;48.914;2.254;2023-06-01T10:57:49;27.06;47.88
75961;SHT30;64644;48.914;2.254;2023-06-01T11:03:02;27.20;47.72
75961;SHT30;64644;48.914;2.254;2023-06-01T11:05:49;27.30;46.96
75961;SHT30;64644;48.914;2.254;2023-06-01T11:13:17;27.49;46.63
75961;SHT30;64644;48.914;2.254;2023-06-01T11:19:04;27.65;45.89
75961;SHT30;64644;48.914;2.254;2023-06-01T11:24:05;27.74;45.73
75961;SHT30;64644;48.914;2.254;2023-06-01T11:26:34;27.80;45.54
75961;SHT30;64644;48.914;2.254;2023-06-01T11:29:06;27.88;45.77
75961;SHT30;64644;48.914;2.254;2023-06-01T11:31:37;27.97;46.13
75961;SHT30;64644;48.914;2.254;2023-06-01T11:34:03;28.06;45.52
75961;SHT30;64644;48.914;2.254;2023-06-01T11:36:29;28.08;45.41
75961;SHT30;64644;48.914;2.254;2023-06-01T11:38:55;28.17;45.21
75961;SHT30;64644;48.914;2.254;2023-06-01T11:41:21;28.29;44.90
75961;SHT30;64644;48.914;2.254;2023-06-01T11:43:54;28.34;44.50
75961;SHT30;64644;48.914;2.254;2023-06-01T11:46:20;28.40;44.48
75961;SHT30;64644;48.914;2.254;2023-06-01T11:51:29;28.47;43.96
75961;SHT30;64644;48.914;2.254;2023-06-01T11:53:54;28.48;44.01
75961;SHT30;64644;48.914;2.254;2023-06-01T11:56:20;28.55;44.06
75961;SHT30;64644;48.914;2.254;2023-06-01T11:58:57;28.63;43.69
75961;SHT30;64644;48.914;2.254;2023-06-01T12:01:22;28.70;43.60
75961;SHT30;64644;48.914;2.254;2023-06-01T12:03:47;28.89;43.23
75961;SHT30;64644;48.914;2.254;2023-06-01T12:06:20;29.00;42.96
75961;SHT30;64644;48.914;2.254;2023-06-01T12:08:47;29.06;43.15
75961;SHT30;64644;48.914;2.254;2023-06-01T12:11:17;29.14;42.91
75961;SHT30;64644;48.914;2.254;2023-06-01T12:13:43;29.23;43.25
75961;SHT30;64644;48.914;2.254;2023-06-01T12:16:09;29.35;43.34
75961;SHT30;64644;48.914;2.254;2023-06-01T12:18:34;29.44;42.17
75961;SHT30;64644;48.914;2.254;2023-06-01T12:21:08;29.57;42.54
75961;SHT30;64644;48.914;2.254;2023-06-01T12:23:33;29.72;42.28
75961;SHT30;64644;48.914;2.254;2023-06-01T12:25:59;29.82;41.84
75961;SHT30;64644;48.914;2.254;2023-06-01T12:28:26;29.89;41.14
75961;SHT30;64644;48.914;2.254;2023-06-01T12:31:14;29.96;41.41
75961;SHT30;64644;48.914;2.254;2023-06-01T12:33:41;30.03;40.56
75961;SHT30;64644;48.914;2.254;2023-06-01T12:36:07;30.06;40.92
75961;SHT30;64644;48.914;2.254;2023-06-01T12:38:50;30.10;40.71
75961;SHT30;64644;48.914;2.254;2023-06-01T12:41:17;30.14;41.70
75961;SHT30;64644;48.914;2.254;2023-06-01T12:43:46;30.25;41.00
75961;SHT30;64644;48.914;2.254;2023-06-01T12:46:19;30.32;41.00
75961;SHT30;64644;48.914;2.254;2023-06-01T12:48:45;30.42;41.50
75961;SHT30;64644;48.914;2.254;2023-06-01T12:51:11;30.55;41.58
75961;SHT30;64644;48.914;2.254;2023-06-01T12:53:37;30.64;40.67
75961;SHT30;64644;48.914;2.254;2023-06-01T12:56:02;30.69;41.53
75961;SHT30;64644;48.914;2.254;2023-06-01T12:58:28;30.76;40.00
75961;SHT30;64644;48.914;2.254;2023-06-01T13:00:53;30.76;40.07
75961;SHT30;64644;48.914;2.254;2023-06-01T13:03:19;30.79;39.90
75961;SHT30;64644;48.914;2.254;2023-06-01T13:05:46;30.80;39.71
75961;SHT30;64644;48.914;2.254;2023-06-01T13:08:14;30.79;39.97
75961;SHT30;64644;48.914;2.254;2023-06-01T13:10:41;30.89;39.33
75961;SHT30;64644;48.914;2.254;2023-06-01T13:13:07;30.89;39.34
75961;SHT30;64644;48.914;2.254;2023-06-01T13:15:33;30.92;40.05
75961;SHT30;64644;48.914;2.254;2023-06-01T13:17:58;31.00;39.44
75961;SHT30;64644;48.914;2.254;2023-06-01T13:20:23;31.09;39.63
75961;SHT30;64644;48.914;2.254;2023-06-01T13:22:49;31.13;39.28
75961;SHT30;64644;48.914;2.254;2023-06-01T13:25:14;31.18;39.00
75961;SHT30;64644;48.914;2.254;2023-06-01T13:27:40;31.28;40.46
75961;SHT30;64644;48.914;2.254;2023-06-01T13:30:06;31.34;39.78
75961;SHT30;64644;48.914;2.254;2023-06-01T13:32:32;31.33;38.89
75961;SHT30;64644;48.914;2.254;2023-06-01T13:34:58;31.30;39.00
75961;SHT30;64644;48.914;2.254;2023-06-01T13:37:23;31.35;40.42
75961;SHT30;64644;48.914;2.254;2023-06-01T13:39:48;31.38;38.96
75961;SHT30;64644;48.914;2.254;2023-06-01T13:42:18;31.34;38.92
75961;SHT30;64644;48.914;2.254;2023-06-01T13:44:43;31.35;38.99
75961;SHT30;64644;48.914;2.254;2023-06-01T13:47:12;31.38;39.19
75961;SHT30;64644;48.914;2.254;2023-06-01T13:49:39;31.37;38.73
75961;SHT30;64644;48.914;2.254;2023-06-01T13:52:05;31.44;38.31
75961;SHT30;64644;48.914;2.254;2023-06-01T13:54:30;31.41;38.39
75961;SHT30;64644;48.914;2.254;2023-06-01T13:56:56;31.38;38.27
75961;SHT30;64644;48.914;2.254;2023-06-01T13:59:21;31.39;38.57
75961;SHT30;64644;48.914;2.254;2023-06-01T14:01:46;31.38;38.36
75961;SHT30;64644;48.914;2.254;2023-06-01T14:04:12;31.38;39.54
75961;SHT30;64644;48.914;2.254;2023-06-01T14:06:37;31.35;39.37
75961;SHT30;64644;48.914;2.254;2023-06-01T14:09:02;31.34;38.64
75961;SHT30;64644;48.914;2.254;2023-06-01T14:11:28;31.33;38.90
75961;SHT30;64644;48.914;2.254;2023-06-01T14:13:53;31.28;38.06
75961;SHT30;64644;48.914;2.254;2023-06-01T14:16:18;31.27;38.13
75961;SHT30;64644;48.914;2.254;2023-06-01T14:18:44;31.23;40.27
75961;SHT30;64644;48.914;2.254;2023-06-01T14:21:09;31.16;39.11
75961;SHT30;64644;48.914;2.254;2023-06-01T14:23:34;31.10;39.99
75961;SHT30;64644;48.914;2.254;2023-06-01T14:26:00;31.09;39.42
75961;SHT30;64644;48.914;2.254;2023-06-01T14:28:26;31.03;38.67
75961;SHT30;64644;48.914;2.254;2023-06-01T14:30:51;30.96;40.24
75961;SHT30;64644;48.914;2.254;2023-06-01T14:33:16;30.90;38.37
75961;SHT30;64644;48.914;2.254;2023-06-01T14:35:42;30.82;38.53
75961;SHT30;64644;48.914;2.254;2023-06-01T14:38:07;30.78;39.44
75961;SHT30;64644;48.914;2.254;2023-06-01T14:40:32;30.73;40.72
75961;SHT30;64644;48.914;2.254;2023-06-01T14:42:58;30.71;38.89
75961;SHT30;64644;48.914;2.254;2023-06-01T14:45:23;30.65;38.56
75961;SHT30;64644;48.914;2.254;2023-06-01T14:47:48;30.66;38.71
75961;SHT30;64644;48.914;2.254;2023-06-01T14:50:14;30.61;39.27
75961;SHT30;64644;48.914;2.254;2023-06-01T14:52:40;30.56;38.55
75961;SHT30;64644;48.914;2.254;2023-06-01T14:55:05;30.48;39.62
75961;SHT30;64644;48.914;2.254;2023-06-01T14:57:31;30.44;40.57
75961;SHT30;64644;48.914;2.254;2023-06-01T14:59:56;30.31;40.06
75961;SHT30;64644;48.914;2.254;2023-06-01T15:02:22;30.20;39.51
75961;SHT30;64644;48.914;2.254;2023-06-01T15:04:47;30.09;39.41
75961;SHT30;64644;48.914;2.254;2023-06-01T15:07:12;29.97;39.30
75961;SHT30;64644;48.914;2.254;2023-06-01T15:09:38;29.83;39.73
75961;SHT30;64644;48.914;2.254;2023-06-01T15:12:03;29.73;40.64
75961;SHT30;64644;48.914;2.254;2023-06-01T15:14:28;29.62;40.67
75961;SHT30;64644;48.914;2.254;2023-06-01T15:16:54;29.54;43.09
75961;SHT30;64644;48.914;2.254;2023-06-01T15:19:19;29.41;42.62
75961;SHT30;64644;48.914;2.254;2023-06-01T15:21:45;29.27;43.05
75961;SHT30;64644;48.914;2.254;2023-06-01T15:24:10;29.18;42.25
75961;SHT30;64644;48.914;2.254;2023-06-01T15:26:36;29.08;41.00
75961;SHT30;64644;48.914;2.254;2023-06-01T15:29:01;28.99;41.74
75961;SHT30;64644;48.914;2.254;2023-06-01T15:31:26;28.90;41.75
75961;SHT30;64644;48.914;2.254;2023-06-01T15:33:52;28.84;42.58
75961;SHT30;64644;48.914;2.254;2023-06-01T15:36:17;28.80;41.86
75961;SHT30;64644;48.914;2.254;2023-06-01T15:38:42;28.75;42.27
75961;SHT30;64644;48.914;2.254;2023-06-01T15:41:08;28.73;42.01
75961;SHT30;64644;48.914;2.254;2023-06-01T15:43:34;28.62;41.69
75961;SHT30;64644;48.914;2.254;2023-06-01T15:46:01;28.56;41.60
75961;SHT30;64644;48.914;2.254;2023-06-01T15:48:26;28.51;42.17
75961;SHT30;64644;48.914;2.254;2023-06-01T15:50:51;28.42;41.91
75961;SHT30;64644;48.914;2.254;2023-06-01T15:53:17;28.38;42.29
75961;SHT30;64644;48.914;2.254;2023-06-01T15:55:44;28.29;42.68
75961;SHT30;64644;48.914;2.254;2023-06-01T15:58:10;28.22;43.14
75961;SHT30;64644;48.914;2.254;2023-06-01T16:00:35;28.17;43.65